Chillicothe, Illinois
Current Conditions -  °F | °C
As of 9:35 PM on Wednesday 22 Oct 2014 (Local Time) from KC75 Reporting Station
Clear Clear  
Wind Chill: 41°   Ceiling: Unl
Heat Index: 41°   Visibility: 10mi
Dew Point: 34°   Wind: 0mph
Humidity: 77%   Direction: NA
Pressure: 30.26"   Gusts: NA
Location:  40.92°N, 89.49°W
Report Text: KC75 230235Z AUTO 00000KT 10SM CLR 05/01 A3026 RMK AO2 T00500012
Loading
Personal Weather Stations






























Interactive Weather Map New forecast layout! Learn more

10-Day Weather Forecast

Advertisements
Track Severe Weather on mobile